createdAt,value
2023-03-18T00:02:20.105Z,60.19
2023-03-18T00:04:47.762Z,58.00
2023-03-18T00:07:15.511Z,57.54
2023-03-18T00:09:43.376Z,57.82
2023-03-18T00:12:12.434Z,62.34
2023-03-18T00:14:40.083Z,58.86
2023-03-18T00:17:08.010Z,58.24
2023-03-18T00:19:35.640Z,58.61
2023-03-18T00:22:03.788Z,57.81
2023-03-18T00:24:31.533Z,61.70
2023-03-18T00:26:59.128Z,64.55
2023-03-18T00:29:28.190Z,61.07
2023-03-18T00:31:56.098Z,59.62
2023-03-18T00:34:23.692Z,58.54
2023-03-18T00:36:56.803Z,56.72
2023-03-18T00:39:26.423Z,56.35
2023-03-18T00:41:56.215Z,55.95
2023-03-18T00:44:25.204Z,60.53
2023-03-18T00:46:54.249Z,59.32
2023-03-18T00:49:21.901Z,62.39
2023-03-18T00:51:49.584Z,57.77
2023-03-18T00:54:18.496Z,63.51
2023-03-18T00:56:46.864Z,57.54
2023-03-18T00:59:14.981Z,56.66
2023-03-18T01:01:43.682Z,64.05
2023-03-18T01:04:12.813Z,61.08
2023-03-18T01:06:40.447Z,65.86
2023-03-18T01:09:11.696Z,67.93
2023-03-18T01:11:40.385Z,70.29
2023-03-18T01:14:08.702Z,68.11
2023-03-18T01:16:36.567Z,70.67
2023-03-18T01:19:04.939Z,60.16
2023-03-18T01:21:34.712Z,60.42
2023-03-18T01:24:04.432Z,58.75
2023-03-18T01:26:34.481Z,58.69
2023-03-18T01:29:03.655Z,59.91
2023-03-18T01:31:34.562Z,62.21
2023-03-18T01:34:06.762Z,62.72
2023-03-18T01:36:46.246Z,63.04
2023-03-18T01:39:15.178Z,60.89
2023-03-18T01:41:43.082Z,60.09
2023-03-18T01:44:17.426Z,60.40
2023-03-18T01:46:48.264Z,65.66
2023-03-18T01:49:20.856Z,65.84
2023-03-18T01:51:54.171Z,70.86
2023-03-18T01:54:23.972Z,71.31
2023-03-18T01:56:53.818Z,72.67
2023-03-18T01:59:24.750Z,72.12
2023-03-18T02:01:55.989Z,76.65
2023-03-18T02:04:31.079Z,75.70
2023-03-18T02:07:01.234Z,77.35
2023-03-18T02:09:29.607Z,78.68
2023-03-18T02:11:57.623Z,76.24
2023-03-18T02:14:27.637Z,74.68
2023-03-18T02:17:03.903Z,79.17
2023-03-18T02:19:55.423Z,84.92
2023-03-18T02:22:31.972Z,85.56
2023-03-18T02:25:14.048Z,88.14
2023-03-18T02:27:45.987Z,87.77
2023-03-18T02:30:18.931Z,89.82
2023-03-18T02:32:51.814Z,90.33
2023-03-18T02:35:20.654Z,88.83
2023-03-18T02:37:49.297Z,88.69
2023-03-18T02:40:21.903Z,89.42
2023-03-18T02:42:51.437Z,88.59
2023-03-18T02:45:36.731Z,88.90
2023-03-18T02:48:16.069Z,90.56
2023-03-18T02:50:44.011Z,87.56
2023-03-18T02:53:13.782Z,87.09
2023-03-18T02:55:42.362Z,89.40
2023-03-18T02:58:11.538Z,89.45
2023-03-18T03:00:40.970Z,89.95
2023-03-18T03:03:08.821Z,92.56
2023-03-18T03:05:36.916Z,94.58
2023-03-18T03:08:05.036Z,93.83
2023-03-18T03:10:37.689Z,94.02
2023-03-18T03:13:07.384Z,87.86
2023-03-18T03:15:36.911Z,90.06
2023-03-18T03:18:05.224Z,94.41
2023-03-18T03:20:35.376Z,95.24
2023-03-18T03:23:04.085Z,94.47
2023-03-18T03:25:32.360Z,93.12
2023-03-18T03:28:00.248Z,88.44
2023-03-18T03:30:28.566Z,86.16
2023-03-18T03:33:01.378Z,85.62
2023-03-18T03:35:29.186Z,88.20
2023-03-18T03:37:56.821Z,90.50
2023-03-18T03:40:25.977Z,88.47
2023-03-18T03:42:53.674Z,88.50
2023-03-18T03:45:21.291Z,86.45
2023-03-18T03:47:49.292Z,86.75
2023-03-18T03:50:19.421Z,77.70
2023-03-18T03:52:47.162Z,85.10
2023-03-18T03:55:17.560Z,85.46
2023-03-18T03:57:45.757Z,84.10
2023-03-18T04:00:16.535Z,81.96
2023-03-18T04:02:50.039Z,78.16
2023-03-18T04:05:23.470Z,81.04
2023-03-18T04:07:52.442Z,82.40
2023-03-18T04:10:26.391Z,83.82
2023-03-18T04:12:54.316Z,80.21
2023-03-18T04:15:23.009Z,80.55
2023-03-18T04:17:53.717Z,80.10
2023-03-18T04:20:22.944Z,83.75
2023-03-18T04:22:51.344Z,83.53
2023-03-18T04:25:22.078Z,87.70
2023-03-18T04:27:53.500Z,85.89
2023-03-18T04:30:23.352Z,87.62
2023-03-18T04:33:10.796Z,88.21
2023-03-18T04:35:42.993Z,89.50
2023-03-18T04:38:12.831Z,89.26
2023-03-18T04:40:40.962Z,89.10
2023-03-18T04:43:09.882Z,85.94
2023-03-18T04:45:37.946Z,86.07
2023-03-18T04:48:06.397Z,81.21
2023-03-18T04:50:38.874Z,83.81
2023-03-18T04:53:11.235Z,85.00
2023-03-18T04:55:39.482Z,82.92
2023-03-18T04:58:09.615Z,84.22
2023-03-18T05:00:42.435Z,78.57
2023-03-18T05:03:21.773Z,78.36
2023-03-18T05:05:50.589Z,72.12
2023-03-18T05:08:23.649Z,78.18
2023-03-18T05:10:52.339Z,81.68
2023-03-18T05:13:20.420Z,83.47
2023-03-18T05:15:48.584Z,81.90
2023-03-18T05:18:17.073Z,85.79
2023-03-18T05:20:48.852Z,86.67
2023-03-18T05:23:18.543Z,88.81
2023-03-18T05:25:55.957Z,82.39
2023-03-18T05:28:27.039Z,90.56
2023-03-18T05:31:20.971Z,79.76
2023-03-18T05:33:48.987Z,65.08
2023-03-18T05:36:17.399Z,62.19
2023-03-18T05:38:55.494Z,60.22
2023-03-18T05:41:25.674Z,60.21
2023-03-18T05:43:54.158Z,60.45
2023-03-18T05:46:22.785Z,57.56
2023-03-18T05:48:59.776Z,56.57
2023-03-18T05:51:32.444Z,58.34
2023-03-18T05:54:01.330Z,59.03
2023-03-18T05:56:35.083Z,60.14
2023-03-18T05:59:06.545Z,64.84
2023-03-18T06:01:46.965Z,65.21
2023-03-18T06:04:15.312Z,58.27
2023-03-18T06:06:43.456Z,58.22
2023-03-18T06:09:13.218Z,57.86
2023-03-18T06:11:45.468Z,57.33
2023-03-18T06:14:14.325Z,55.40
2023-03-18T06:16:43.276Z,54.67
2023-03-18T06:19:13.056Z,54.11
2023-03-18T06:21:42.025Z,54.50
2023-03-18T06:24:10.665Z,56.12
2023-03-18T06:26:39.741Z,54.94
2023-03-18T06:29:10.723Z,55.48
2023-03-18T06:31:39.689Z,55.02
2023-03-18T06:34:10.111Z,56.29
2023-03-18T06:36:40.205Z,54.07
2023-03-18T06:39:13.916Z,55.17
2023-03-18T06:41:42.702Z,54.02
2023-03-18T06:44:31.772Z,53.49
2023-03-18T06:47:08.851Z,53.23
2023-03-18T06:49:39.721Z,53.50
2023-03-18T06:52:13.487Z,54.86
2023-03-18T06:54:44.469Z,55.52
2023-03-18T06:57:12.390Z,55.03
2023-03-18T06:59:41.950Z,53.87
2023-03-18T07:02:11.137Z,54.73
2023-03-18T07:04:38.927Z,53.35
2023-03-18T07:07:07.134Z,55.64
2023-03-18T07:09:37.486Z,55.51
2023-03-18T07:12:06.360Z,55.00
2023-03-18T07:14:34.084Z,53.58
2023-03-18T07:17:03.878Z,54.42
2023-03-18T07:19:32.983Z,54.18
2023-03-18T07:22:02.287Z,53.37
2023-03-18T07:24:30.359Z,53.84
2023-03-18T07:26:58.743Z,53.18
2023-03-18T07:29:26.368Z,53.01
2023-03-18T07:31:54.036Z,53.43
2023-03-18T07:34:23.344Z,52.67
2023-03-18T07:36:51.010Z,53.71
2023-03-18T07:39:18.672Z,53.56
2023-03-18T07:41:46.320Z,53.47
2023-03-18T07:44:21.711Z,52.46
2023-03-18T07:46:49.355Z,51.75
2023-03-18T07:49:17.036Z,51.09
2023-03-18T07:51:46.056Z,50.70
2023-03-18T07:54:14.214Z,51.54
2023-03-18T07:56:41.862Z,51.66
2023-03-18T07:59:10.318Z,50.06
2023-03-18T08:01:38.998Z,50.46
2023-03-18T08:04:06.896Z,50.74
2023-03-18T08:06:34.996Z,50.32
2023-03-18T08:09:04.930Z,49.95
2023-03-18T08:11:33.741Z,50.58
2023-03-18T08:14:01.573Z,51.97
2023-03-18T08:16:29.569Z,48.78
2023-03-18T08:18:57.197Z,47.57
2023-03-18T08:21:24.931Z,47.19
2023-03-18T08:23:52.589Z,47.92
2023-03-18T08:26:21.532Z,47.97
2023-03-18T08:28:49.207Z,48.67
2023-03-18T08:31:16.862Z,48.61
2023-03-18T08:33:44.547Z,48.21
2023-03-18T08:36:12.228Z,48.29
2023-03-18T08:38:39.976Z,48.66
2023-03-18T08:41:07.704Z,48.18
2023-03-18T08:43:38.958Z,48.78
2023-03-18T08:46:07.099Z,47.61
2023-03-18T08:48:35.039Z,49.08
2023-03-18T08:51:04.819Z,48.50
2023-03-18T08:53:32.497Z,47.99
2023-03-18T08:56:02.848Z,47.69
2023-03-18T08:58:30.600Z,48.74
2023-03-18T09:00:59.597Z,48.21
2023-03-18T09:03:27.421Z,48.21
2023-03-18T09:05:55.405Z,47.19
2023-03-18T09:08:23.557Z,47.62
2023-03-18T09:10:53.359Z,47.60
2023-03-18T09:13:21.269Z,47.16
2023-03-18T09:15:48.983Z,46.03
2023-03-18T09:18:19.178Z,46.97
2023-03-18T09:20:47.409Z,46.17
2023-03-18T09:23:18.159Z,46.79
2023-03-18T09:25:46.838Z,46.64
2023-03-18T09:28:14.814Z,45.94
2023-03-18T09:30:42.632Z,44.52
2023-03-18T09:33:11.706Z,46.41
2023-03-18T09:35:41.164Z,43.67
2023-03-18T09:38:09.083Z,44.19
2023-03-18T09:40:38.831Z,43.45
2023-03-18T09:43:21.711Z,45.13
2023-03-18T09:45:59.956Z,42.44
2023-03-18T09:48:49.201Z,43.93
2023-03-18T09:51:34.902Z,44.78
2023-03-18T09:54:06.857Z,44.57
2023-03-18T09:56:37.693Z,43.59
2023-03-18T09:59:12.972Z,44.09
2023-03-18T10:01:42.062Z,43.88
2023-03-18T10:04:18.180Z,43.78
2023-03-18T10:06:50.046Z,45.14
2023-03-18T10:09:24.286Z,43.42
2023-03-18T10:11:54.766Z,44.55
2023-03-18T10:14:36.251Z,45.78
2023-03-18T10:17:13.345Z,45.11
2023-03-18T10:19:46.293Z,44.60
2023-03-18T10:22:29.840Z,44.88
2023-03-18T10:25:04.614Z,45.81
2023-03-18T10:27:42.755Z,45.18
2023-03-18T10:30:29.993Z,44.82
2023-03-18T10:33:04.905Z,43.95
2023-03-18T10:35:39.654Z,43.33
2023-03-18T10:38:19.129Z,43.57
2023-03-18T10:40:47.915Z,43.89
2023-03-18T10:43:19.397Z,42.35
2023-03-18T10:45:48.647Z,42.68
2023-03-18T10:48:22.209Z,42.87
2023-03-18T10:51:01.907Z,43.19
2023-03-18T10:53:39.116Z,42.45
2023-03-18T10:56:10.335Z,42.27
2023-03-18T10:58:39.123Z,42.38
2023-03-18T11:01:08.671Z,42.86
2023-03-18T11:03:42.059Z,43.46
2023-03-18T11:06:19.027Z,42.44
2023-03-18T11:08:50.241Z,42.95
2023-03-18T11:11:26.761Z,42.43
2023-03-18T11:13:56.243Z,42.94
2023-03-18T11:16:31.803Z,40.51
2023-03-18T11:18:59.865Z,41.27
2023-03-18T11:21:29.645Z,41.66
2023-03-18T11:24:10.575Z,42.31
2023-03-18T11:26:53.416Z,41.02
2023-03-18T11:29:24.904Z,41.08
2023-03-18T11:31:57.984Z,40.58
2023-03-18T11:34:26.982Z,41.66
2023-03-18T11:36:59.042Z,42.18
2023-03-18T11:39:31.120Z,41.60
2023-03-18T11:42:00.256Z,40.28
2023-03-18T11:44:33.082Z,42.15
2023-03-18T11:47:05.685Z,41.53
2023-03-18T11:49:34.391Z,40.90
2023-03-18T11:52:29.428Z,41.11
2023-03-18T11:55:31.709Z,41.54
2023-03-18T11:58:25.935Z,42.03
2023-03-18T12:01:01.578Z,39.89
2023-03-18T12:03:56.708Z,41.36
2023-03-18T12:06:26.111Z,40.15
2023-03-18T12:09:04.963Z,41.88
2023-03-18T12:11:48.826Z,42.02
2023-03-18T12:14:25.783Z,40.98
2023-03-18T12:17:03.764Z,40.18
2023-03-18T12:19:46.791Z,40.08
2023-03-18T12:22:28.917Z,40.63
2023-03-18T12:25:14.025Z,41.14
2023-03-18T12:27:53.478Z,39.46
2023-03-18T12:30:39.427Z,39.97
2023-03-18T12:33:24.060Z,40.57
2023-03-18T12:36:00.675Z,39.53
2023-03-18T12:38:45.797Z,39.80
2023-03-18T12:41:18.415Z,40.66
2023-03-18T12:44:03.855Z,40.79
2023-03-18T12:46:34.817Z,40.16
2023-03-18T12:49:09.645Z,40.50
2023-03-18T12:51:44.794Z,40.00
2023-03-18T12:54:18.953Z,39.97
2023-03-18T12:56:52.827Z,40.67
2023-03-18T12:59:29.050Z,39.61
2023-03-18T13:02:13.232Z,40.17
2023-03-18T13:04:49.989Z,39.03
2023-03-18T13:07:24.046Z,39.42
2023-03-18T13:09:59.457Z,40.08
2023-03-18T13:12:31.623Z,38.78
2023-03-18T13:15:03.448Z,39.65
2023-03-18T13:17:34.067Z,39.93
2023-03-18T13:20:03.616Z,39.84
2023-03-18T13:23:01.761Z,39.87
2023-03-18T13:25:37.852Z,40.09
2023-03-18T13:28:17.334Z,38.98
2023-03-18T13:30:59.264Z,39.84
2023-03-18T13:33:58.630Z,39.05
2023-03-18T13:36:43.565Z,39.76
2023-03-18T13:39:24.355Z,39.14
2023-03-18T13:42:19.961Z,39.94
2023-03-18T13:44:55.210Z,39.34
2023-03-18T13:47:25.508Z,38.53
2023-03-18T13:50:01.140Z,39.03
2023-03-18T13:52:36.978Z,38.01
2023-03-18T13:55:09.051Z,38.73
2023-03-18T13:57:48.514Z,40.31
2023-03-18T14:00:30.427Z,39.85
2023-03-18T14:03:07.268Z,39.95
2023-03-18T14:05:41.662Z,39.98
2023-03-18T14:08:35.188Z,40.48
2023-03-18T14:11:51.152Z,40.89
2023-03-18T14:14:56.685Z,40.75
2023-03-18T14:17:33.500Z,40.88
2023-03-18T14:20:21.385Z,39.89
2023-03-18T14:22:51.150Z,40.11
2023-03-18T14:25:37.556Z,41.49
2023-03-18T14:28:21.410Z,40.32
2023-03-18T14:30:57.008Z,41.19
2023-03-18T14:33:34.363Z,41.16
2023-03-18T14:36:09.806Z,41.03
2023-03-18T14:38:43.390Z,41.25
2023-03-18T14:41:22.372Z,40.76
2023-03-18T14:44:07.588Z,40.94
2023-03-18T14:46:41.276Z,40.73
2023-03-18T14:49:42.811Z,41.70
2023-03-18T14:52:24.030Z,41.50
2023-03-18T14:54:55.013Z,41.60
2023-03-18T14:57:23.234Z,41.59
2023-03-18T14:59:51.433Z,42.08
2023-03-18T15:02:26.923Z,42.33
2023-03-18T15:04:57.051Z,40.59
2023-03-18T15:07:35.311Z,40.23
2023-03-18T15:10:08.602Z,41.11
2023-03-18T15:12:37.224Z,41.12
2023-03-18T15:15:05.476Z,41.24
2023-03-18T15:17:33.392Z,40.96
2023-03-18T15:20:01.630Z,40.65
2023-03-18T15:22:34.726Z,39.15
2023-03-18T15:25:05.748Z,40.09
2023-03-18T15:27:35.862Z,40.08
2023-03-18T15:30:06.674Z,40.81
2023-03-18T15:32:45.494Z,39.61
2023-03-18T15:35:18.288Z,39.73
2023-03-18T15:38:03.112Z,40.11
2023-03-18T15:40:32.821Z,41.11
2023-03-18T15:43:06.831Z,39.80
2023-03-18T15:45:35.449Z,38.92
2023-03-18T15:48:08.883Z,43.08
2023-03-18T15:50:37.212Z,39.75
2023-03-18T15:53:21.472Z,42.40
2023-03-18T15:55:51.416Z,40.60
2023-03-18T15:58:23.816Z,40.70
2023-03-18T16:00:52.488Z,41.29
2023-03-18T16:03:23.361Z,41.72
2023-03-18T16:05:52.852Z,42.95
2023-03-18T16:08:23.652Z,42.13
2023-03-18T16:10:54.595Z,41.08
2023-03-18T16:13:25.067Z,42.22
2023-03-18T16:15:53.924Z,44.11
2023-03-18T16:18:22.673Z,43.20
2023-03-18T16:20:51.323Z,43.67
2023-03-18T16:23:19.623Z,44.17
2023-03-18T16:25:51.029Z,44.52
2023-03-18T16:28:21.267Z,44.82
2023-03-18T16:30:51.995Z,47.55
2023-03-18T16:33:21.578Z,49.89
2023-03-18T16:35:58.436Z,50.43
2023-03-18T16:38:26.979Z,50.05
2023-03-18T16:40:57.499Z,52.23
2023-03-18T16:43:28.019Z,50.98
2023-03-18T16:45:59.346Z,53.21
2023-03-18T16:48:27.977Z,54.90
2023-03-18T16:50:57.219Z,55.23
2023-03-18T16:53:28.568Z,53.57
2023-03-18T16:55:59.813Z,56.10
2023-03-18T16:58:31.309Z,56.52
2023-03-18T17:00:59.945Z,57.17
2023-03-18T17:03:29.274Z,57.28
2023-03-18T17:05:57.326Z,58.29
2023-03-18T17:08:25.034Z,59.36
2023-03-18T17:11:01.648Z,60.50
2023-03-18T17:13:32.199Z,61.00
2023-03-18T17:15:59.864Z,60.28
2023-03-18T17:18:28.004Z,61.61
2023-03-18T17:20:55.779Z,62.64
2023-03-18T17:23:26.991Z,64.60
2023-03-18T17:25:56.733Z,65.61
2023-03-18T17:28:31.149Z,65.85
2023-03-18T17:30:58.849Z,63.94
2023-03-18T17:33:28.927Z,65.92
2023-03-18T17:35:56.876Z,67.17
2023-03-18T17:38:24.835Z,67.38
2023-03-18T17:40:52.779Z,67.16
2023-03-18T17:43:27.464Z,68.51
2023-03-18T17:45:57.323Z,69.30
2023-03-18T17:48:27.276Z,69.63
2023-03-18T17:50:57.339Z,69.47
2023-03-18T17:53:28.442Z,73.91
2023-03-18T17:55:57.131Z,73.81
2023-03-18T17:58:27.355Z,72.24
2023-03-18T18:01:02.198Z,72.51
2023-03-18T18:03:31.170Z,71.77
2023-03-18T18:06:00.172Z,71.16
2023-03-18T18:08:30.183Z,72.63
2023-03-18T18:11:04.174Z,73.57
2023-03-18T18:13:32.246Z,76.64
2023-03-18T18:16:01.298Z,76.46
2023-03-18T18:18:29.433Z,77.00
2023-03-18T18:20:58.972Z,76.43
2023-03-18T18:23:30.248Z,76.19
2023-03-18T18:25:59.796Z,74.42
2023-03-18T18:28:32.869Z,75.64
2023-03-18T18:31:03.402Z,73.64
2023-03-18T18:33:32.166Z,74.21
2023-03-18T18:35:59.962Z,74.81
2023-03-18T18:38:28.344Z,72.02
2023-03-18T18:40:57.383Z,74.62
2023-03-18T18:43:26.286Z,73.29
2023-03-18T18:45:55.805Z,72.13
2023-03-18T18:48:29.798Z,74.39
2023-03-18T18:50:58.483Z,76.25
2023-03-18T18:53:28.078Z,76.19
2023-03-18T18:55:58.100Z,75.17
2023-03-18T18:58:29.686Z,74.13
2023-03-18T19:00:58.050Z,74.22
2023-03-18T19:03:31.419Z,74.35
2023-03-18T19:06:00.871Z,72.12
2023-03-18T19:08:31.649Z,68.98
2023-03-18T19:11:01.317Z,71.84
2023-03-18T19:13:30.965Z,73.34
2023-03-18T19:16:01.855Z,74.17
2023-03-18T19:18:36.086Z,70.33
2023-03-18T19:21:03.770Z,73.97
2023-03-18T19:23:33.185Z,72.69
2023-03-18T19:26:02.136Z,73.85
2023-03-18T19:28:58.411Z,75.01
2023-03-18T19:31:31.171Z,72.24
2023-03-18T19:34:02.120Z,74.02
2023-03-18T19:36:32.512Z,72.93
2023-03-18T19:39:01.935Z,76.21
2023-03-18T19:41:30.204Z,75.25
2023-03-18T19:44:03.783Z,77.67
2023-03-18T19:46:36.952Z,76.71
2023-03-18T19:49:12.698Z,76.00
2023-03-18T19:51:40.366Z,74.69
2023-03-18T19:54:23.481Z,77.72
2023-03-18T19:56:52.539Z,78.04
2023-03-18T19:59:22.755Z,77.75
2023-03-18T20:01:51.399Z,78.59
2023-03-18T20:04:21.535Z,78.19
2023-03-18T20:06:50.296Z,78.54
2023-03-18T20:09:18.674Z,77.85
2023-03-18T20:11:47.649Z,77.73
2023-03-18T20:14:22.834Z,77.65
2023-03-18T20:16:50.494Z,76.96
2023-03-18T20:19:18.118Z,77.43
2023-03-18T20:21:48.638Z,78.71
2023-03-18T20:24:19.972Z,72.79
2023-03-18T20:26:47.709Z,72.56
2023-03-18T20:29:17.894Z,74.25
2023-03-18T20:31:45.852Z,76.73
2023-03-18T20:34:13.844Z,76.99
2023-03-18T20:36:42.005Z,78.26
2023-03-18T20:39:19.775Z,79.59
2023-03-18T20:41:47.533Z,80.46
2023-03-18T20:44:15.284Z,76.58
2023-03-18T20:46:43.168Z,78.25
2023-03-18T20:49:10.877Z,79.34
2023-03-18T20:51:41.068Z,79.83
2023-03-18T20:54:18.619Z,78.12
2023-03-18T20:56:46.640Z,75.64
2023-03-18T20:59:14.662Z,77.35
2023-03-18T21:01:42.796Z,81.08
2023-03-18T21:04:12.659Z,82.78
2023-03-18T21:06:41.241Z,83.38
2023-03-18T21:09:10.026Z,83.67
2023-03-18T21:11:39.131Z,85.08
2023-03-18T21:14:06.768Z,84.47
2023-03-18T21:16:37.589Z,85.09
2023-03-18T21:19:05.526Z,86.08
2023-03-18T21:21:38.249Z,85.21
2023-03-18T21:24:23.571Z,82.56
2023-03-18T21:27:03.792Z,83.66
2023-03-18T21:29:32.724Z,85.67
2023-03-18T21:32:02.372Z,85.77
2023-03-18T21:34:30.432Z,86.92
2023-03-18T21:36:58.057Z,86.85
2023-03-18T21:39:25.839Z,86.89
2023-03-18T21:41:55.055Z,86.31
2023-03-18T21:44:22.839Z,83.91
2023-03-18T21:46:50.414Z,85.08
2023-03-18T21:49:17.991Z,85.91
2023-03-18T21:51:45.628Z,87.43
2023-03-18T21:54:18.932Z,86.01
2023-03-18T21:56:46.704Z,82.08
2023-03-18T21:59:15.857Z,81.97
2023-03-18T22:01:43.850Z,84.04
2023-03-18T22:04:12.562Z,87.22
2023-03-18T22:06:40.343Z,87.96
2023-03-18T22:09:08.620Z,87.24
2023-03-18T22:11:36.309Z,87.50
2023-03-18T22:14:03.928Z,89.39
2023-03-18T22:16:32.990Z,92.03
2023-03-18T22:19:00.737Z,91.40
2023-03-18T22:21:29.314Z,87.21
2023-03-18T22:23:58.076Z,86.94
2023-03-18T22:26:25.801Z,88.45
2023-03-18T22:28:53.471Z,92.17
2023-03-18T22:31:23.971Z,93.72
2023-03-18T22:33:53.451Z,93.34
2023-03-18T22:36:22.575Z,87.24
2023-03-18T22:38:50.400Z,87.97
2023-03-18T22:41:21.963Z,92.65
2023-03-18T22:43:50.259Z,93.85
2023-03-18T22:46:18.052Z,95.21
2023-03-18T22:48:45.978Z,95.63
2023-03-18T22:51:22.884Z,96.38
2023-03-18T22:53:52.468Z,94.83
2023-03-18T22:56:21.147Z,94.65
2023-03-18T22:58:48.841Z,94.87
2023-03-18T23:01:18.703Z,95.47
2023-03-18T23:03:47.326Z,98.74
2023-03-18T23:06:16.665Z,98.17
2023-03-18T23:08:46.490Z,97.52
2023-03-18T23:11:15.095Z,95.55
2023-03-18T23:13:44.212Z,95.46
2023-03-18T23:16:16.373Z,95.82
2023-03-18T23:18:44.182Z,95.94
2023-03-18T23:21:17.347Z,94.32
2023-03-18T23:23:46.407Z,94.10
2023-03-18T23:26:14.120Z,91.29
2023-03-18T23:28:44.990Z,90.83
2023-03-18T23:31:13.375Z,90.51
2023-03-18T23:33:41.189Z,89.26
2023-03-18T23:36:09.703Z,91.29
2023-03-18T23:38:37.915Z,87.84
2023-03-18T23:41:07.319Z,89.24
2023-03-18T23:43:35.012Z,88.53
2023-03-18T23:46:03.613Z,87.85
2023-03-18T23:48:31.858Z,88.11
2023-03-18T23:50:59.553Z,88.47
2023-03-18T23:53:27.264Z,88.35
2023-03-18T23:55:54.868Z,89.40
2023-03-18T23:58:23.813Z,90.10
